Time;durP1;ratioP1;P1;durP2;ratioP2;P2;SDS_P1;SDS_P2;PMS_P1;PMS_P2;Temp;Humidity;BMP_temperature;BMP_pressure;BME280_temperature;BME280_humidity;BME280_pressure;Samples;Min_cycle;Max_cycle;Signal;HPM_P1;HPM_P2
2021/12/12 00:00:54;;;;;;;16.20;6.47;;;2.30;99.90;;;1.32;100.00;98346.22;5025034;28;20063;-68
2021/12/12 00:03:40;;;;;;;15.15;5.63;;;2.30;99.90;;;1.18;100.00;98344.44;5021765;28;20140;-67
2021/12/12 00:06:18;;;;;;;14.23;6.80;;;2.20;99.90;;;1.14;100.00;98340.16;5021312;28;20136;-67
2021/12/12 00:08:50;;;;;;;17.60;6.70;;;2.20;99.90;;;1.01;100.00;98343.47;5024240;28;20060;-66
2021/12/12 00:11:22;;;;;;;17.38;7.03;;;2.20;99.90;;;1.14;100.00;98344.41;5022968;28;20137;-68
2021/12/12 00:13:59;;;;;;;20.85;7.38;;;2.20;99.90;;;1.11;100.00;98341.84;5021784;28;20053;-68
2021/12/12 00:16:27;;;;;;;14.30;6.00;;;2.20;99.90;;;1.19;100.00;98351.28;5008037;28;20374;-67
2021/12/12 00:18:55;;;;;;;13.77;5.00;;;2.30;99.90;;;1.20;100.00;98347.88;5021188;28;20091;-69
2021/12/12 00:21:27;;;;;;;16.38;5.30;;;2.30;99.90;;;1.21;100.00;98354.72;5022877;28;20470;-67
2021/12/12 00:23:55;;;;;;;17.90;6.50;;;2.30;99.90;;;1.27;100.00;98353.88;5021605;28;20139;-66
2021/12/12 00:26:23;;;;;;;19.20;6.20;;;2.30;99.90;;;1.24;100.00;98359.84;5022775;28;20068;-67
2021/12/12 00:28:51;;;;;;;20.48;6.03;;;2.30;99.90;;;1.26;100.00;98354.75;5037347;28;20069;-66
2021/12/12 00:31:21;;;;;;;15.50;5.60;;;2.30;99.90;;;1.35;100.00;98359.91;5024042;28;20413;-66
2021/12/12 00:33:54;;;;;;;16.13;5.20;;;2.30;99.90;;;1.23;100.00;98355.56;5022532;28;20552;-67
2021/12/12 00:36:23;;;;;;;21.77;5.78;;;2.30;99.90;;;1.31;100.00;98368.41;5039615;28;20045;-67
2021/12/12 00:38:57;;;;;;;19.27;6.18;;;2.30;99.90;;;1.30;100.00;98373.50;5018201;28;20132;-67
2021/12/12 00:41:35;;;;;;;15.05;4.93;;;2.30;99.90;;;1.36;100.00;98373.56;5023003;28;20498;-66
2021/12/12 00:44:05;;;;;;;17.48;5.47;;;2.30;99.90;;;1.24;100.00;98377.72;5018899;28;20350;-66
2021/12/12 00:46:33;;;;;;;23.05;5.57;;;2.30;99.90;;;1.24;100.00;98364.09;5025292;28;20072;-66
2021/12/12 00:49:00;;;;;;;13.45;5.20;;;2.40;99.90;;;1.24;100.00;98371.78;5024025;28;20132;-66
2021/12/12 00:51:31;;;;;;;18.70;4.97;;;2.40;99.90;;;1.35;100.00;98367.59;5025417;28;20136;-67
2021/12/12 00:53:59;;;;;;;9.95;4.13;;;2.40;99.90;;;1.39;100.00;98358.22;5025260;28;20132;-67
2021/12/12 00:56:27;;;;;;;10.38;4.30;;;2.40;99.90;;;1.40;100.00;98348.00;5024218;28;20116;-66
2021/12/12 00:58:54;;;;;;;15.52;5.00;;;2.40;99.90;;;1.29;100.00;98359.00;5023401;28;20129;-67
2021/12/12 01:01:30;;;;;;;21.10;5.00;;;2.40;99.90;;;1.33;100.00;98351.38;5026649;28;20076;-66
2021/12/12 01:04:32;;;;;;;11.82;4.38;;;2.40;99.90;;;1.34;100.00;98353.06;5024336;28;20049;-67
2021/12/12 01:07:04;;;;;;;17.30;4.25;;;2.40;99.90;;;1.27;100.00;98350.47;5026011;28;20042;-67
2021/12/12 01:09:37;;;;;;;18.27;4.25;;;2.40;99.90;;;1.36;100.00;98355.66;5025163;28;20092;-67
2021/12/12 01:12:16;;;;;;;15.02;4.43;;;2.40;99.90;;;1.28;100.00;98349.63;5026085;28;20137;-67
2021/12/12 01:14:51;;;;;;;20.02;4.22;;;2.40;99.90;;;1.36;100.00;98358.22;5023791;28;20045;-66
2021/12/12 01:17:26;;;;;;;14.68;4.13;;;2.40;99.90;;;1.41;100.00;98356.53;5025104;28;20120;-67
2021/12/12 01:20:07;;;;;;;15.75;3.80;;;2.40;99.90;;;1.38;100.00;98356.53;5024437;28;20145;-66
2021/12/12 01:22:37;;;;;;;14.98;4.45;;;2.40;99.90;;;1.25;100.00;98358.13;5028052;28;20132;-66
2021/12/12 01:25:19;;;;;;;10.43;3.72;;;2.40;99.90;;;1.38;100.00;98354.81;5029025;28;20144;-67
2021/12/12 01:27:47;;;;;;;11.52;4.72;;;2.40;99.90;;;1.24;100.00;98367.50;5029013;28;20055;-67
2021/12/12 01:30:17;;;;;;;11.35;3.15;;;2.30;99.90;;;1.28;100.00;98365.84;5029872;28;20140;-67
2021/12/12 01:32:47;;;;;;;13.38;3.70;;;2.40;99.90;;;1.39;100.00;98374.44;5024407;28;20038;-68
2021/12/12 01:35:18;;;;;;;17.45;3.78;;;2.40;99.90;;;1.38;100.00;98369.31;5044076;28;20413;-67
2021/12/12 01:40:52;;;;;;;13.75;3.70;;;2.40;99.90;;;1.28;100.00;98367.50;5029545;28;20118;-67
2021/12/12 01:43:40;;;;;;;15.43;3.17;;;2.40;99.90;;;1.33;100.00;98378.66;5026336;28;20132;-65
2021/12/12 01:46:34;;;;;;;15.88;4.07;;;2.30;99.90;;;1.20;100.00;98373.44;5026982;28;20077;-66
2021/12/12 01:49:19;;;;;;;19.70;3.95;;;2.30;99.90;;;1.11;100.00;98382.75;5025458;28;20136;-67
2021/12/12 01:51:49;;;;;;;10.35;3.72;;;2.30;99.90;;;1.15;100.00;98375.09;5025803;28;20447;-67
2021/12/12 01:54:26;;;;;;;9.60;3.47;;;2.20;99.90;;;1.20;100.00;98388.78;5027971;28;20247;-66
2021/12/12 01:56:59;;;;;;;19.15;3.97;;;2.20;99.90;;;1.07;100.00;98384.41;5027667;28;20185;-67
2021/12/12 01:59:33;;;;;;;13.13;3.45;;;2.20;99.90;;;1.15;100.00;98380.22;5028846;28;20085;-66
2021/12/12 02:02:08;;;;;;;11.90;2.95;;;2.20;99.90;;;1.15;100.00;98392.16;5028692;28;20081;-67
2021/12/12 02:04:44;;;;;;;13.02;3.03;;;2.20;99.90;;;1.16;100.00;98381.06;5029282;28;21086;-67
2021/12/12 02:07:18;;;;;;;10.82;3.03;;;2.20;99.90;;;1.10;100.00;98378.50;5027237;28;20087;-67
2021/12/12 02:09:48;;;;;;;10.32;2.88;;;2.20;99.90;;;1.18;100.00;98385.34;5021578;28;20049;-67
2021/12/12 02:12:18;;;;;;;11.20;3.00;;;2.20;99.90;;;1.02;100.00;98376.69;5033843;28;20146;-67
2021/12/12 02:14:47;;;;;;;18.48;3.42;;;2.20;99.90;;;1.04;100.00;98375.00;5030675;28;20574;-67
2021/12/12 02:17:29;;;;;;;17.30;3.40;;;2.20;99.90;;;1.04;100.00;98369.91;5034417;28;20502;-67
2021/12/12 02:20:14;;;;;;;12.82;2.88;;;2.10;99.90;;;0.98;100.00;98375.00;5043043;28;20059;-67
2021/12/12 02:36:39;;;;;;;14.10;2.90;;;2.00;99.90;;;0.95;100.00;98384.31;5026461;28;20049;-67
2021/12/12 02:39:16;;;;;;;12.65;2.40;;;2.00;99.90;;;0.90;100.00;98380.88;5030278;28;20057;-67
2021/12/12 02:41:53;;;;;;;7.68;2.22;;;2.00;99.90;;;0.97;100.00;98380.06;5032389;28;20128;-66
2021/12/12 02:44:28;;;;;;;16.23;2.70;;;2.00;99.90;;;0.91;100.00;98380.88;5049959;28;20131;-65
2021/12/12 02:47:00;;;;;;;10.90;2.42;;;2.00;99.90;;;0.92;100.00;98384.31;5033938;28;20416;-66
2021/12/12 02:49:41;;;;;;;16.23;2.42;;;2.00;99.90;;;0.90;100.00;98394.50;5026787;28;20116;-67
2021/12/12 02:52:15;;;;;;;8.52;2.47;;;2.00;99.90;;;0.88;100.00;98391.06;5027814;28;20076;-66
2021/12/12 02:54:44;;;;;;;14.73;2.85;;;1.90;99.90;;;0.87;100.00;98389.38;5032671;28;20076;-67
2021/12/12 02:57:14;;;;;;;12.85;2.20;;;1.90;99.90;;;0.81;100.00;98379.94;5038624;28;20511;-66
2021/12/12 02:59:48;;;;;;;12.07;2.35;;;1.90;99.90;;;0.82;100.00;98385.88;5045056;28;20136;-67
2021/12/12 03:02:29;;;;;;;9.85;2.50;;;1.90;99.90;;;0.82;100.00;98391.88;5047894;28;20069;-67
2021/12/12 03:05:04;;;;;;;12.45;2.83;;;1.90;99.90;;;0.80;100.00;98385.06;5023317;28;20140;-66
2021/12/12 03:07:31;;;;;;;19.83;2.38;;;1.90;99.90;;;0.88;100.00;98395.34;5028949;28;20085;-66
2021/12/12 03:10:00;;;;;;;6.55;2.22;;;1.80;99.90;;;0.82;100.00;98396.13;5034576;28;20128;-66
2021/12/12 03:12:33;;;;;;;14.63;3.53;;;1.80;99.90;;;0.79;100.00;98391.00;5033004;28;20099;-66
2021/12/12 03:15:08;;;;;;;14.25;3.28;;;1.90;99.90;;;0.79;100.00;98391.00;5026520;28;20152;-67
2021/12/12 03:17:36;;;;;;;18.83;3.85;;;1.80;99.90;;;0.71;100.00;98375.59;5044834;28;20107;-67
2021/12/12 03:20:30;;;;;;;11.00;2.38;;;1.80;99.90;;;0.69;100.00;98382.38;5037603;28;20100;-66
2021/12/12 03:23:37;;;;;;;13.02;2.63;;;1.80;99.90;;;0.75;100.00;98376.47;5017345;28;20136;-66
2021/12/12 03:26:09;;;;;;;13.77;2.22;;;1.80;99.90;;;0.72;100.00;98389.22;5032172;28;20132;-66
2021/12/12 03:28:41;;;;;;;16.20;2.93;;;1.80;99.90;;;0.66;100.00;98384.03;5048810;28;20486;-67
2021/12/12 03:31:17;;;;;;;18.80;2.75;;;1.70;99.90;;;0.65;100.00;98383.19;5028159;28;20128;-66
2021/12/12 03:33:45;;;;;;;18.40;2.55;;;1.70;99.90;;;0.65;100.00;98385.75;5033699;28;20072;-67
2021/12/12 03:36:15;;;;;;;12.68;2.10;;;1.70;99.90;;;0.66;100.00;98389.16;5024968;28;20175;-67
2021/12/12 03:38:51;;;;;;;13.85;2.03;;;1.70;99.90;;;0.57;100.00;98389.91;5026947;28;20053;-67
2021/12/12 03:41:24;;;;;;;11.77;2.60;;;1.70;99.90;;;0.67;100.00;98385.78;5036199;28;20307;-67
2021/12/12 03:43:58;;;;;;;14.80;2.45;;;1.70;99.90;;;0.65;100.00;98387.44;5025174;28;20050;-67
2021/12/12 03:46:26;;;;;;;11.88;2.53;;;1.60;99.90;;;0.61;100.00;98389.09;5043976;28;20140;-67
2021/12/12 03:48:55;;;;;;;13.98;2.90;;;1.60;99.90;;;0.60;100.00;98385.69;5025925;28;20045;-67
2021/12/12 03:51:26;;;;;;;14.05;3.47;;;1.70;99.90;;;0.58;100.00;98381.41;5038287;28;20571;-67
2021/12/12 03:53:54;;;;;;;17.55;2.20;;;1.70;99.90;;;0.57;100.00;98383.13;5033963;28;20121;-66
2021/12/12 03:56:22;;;;;;;13.93;2.50;;;1.70;99.90;;;0.67;100.00;98384.06;5033543;28;20577;-66
2021/12/12 03:58:50;;;;;;;19.20;2.50;;;1.70;99.90;;;0.62;100.00;98386.56;5037749;28;20070;-67
2021/12/12 04:01:31;;;;;;;7.82;1.92;;;1.70;99.90;;;0.67;100.00;98394.28;5027341;28;20076;-66
2021/12/12 04:04:12;;;;;;;7.97;2.03;;;1.70;99.90;;;0.64;100.00;98389.16;5028951;28;20526;-67
2021/12/12 04:06:40;;;;;;;11.18;2.60;;;1.70;99.90;;;0.65;100.00;98388.31;5029578;28;20077;-67
2021/12/12 04:09:11;;;;;;;17.08;2.88;;;1.70;99.90;;;0.62;100.00;98390.84;5026275;28;20045;-66
2021/12/12 04:11:44;;;;;;;13.40;2.08;;;1.70;99.90;;;0.59;100.00;98391.66;5037620;28;20204;-67
2021/12/12 04:14:11;;;;;;;;;;;1.80;99.90;;;0.65;100.00;98385.75;5012932;28;20076;-66
2021/12/12 04:16:47;;;;;;;9.73;2.33;;;1.80;99.90;;;0.77;100.00;98387.56;5020932;28;20011;-66
2021/12/12 04:19:14;;;;;;;10.73;2.00;;;1.80;99.90;;;0.70;100.00;98388.34;5029856;28;20088;-67
2021/12/12 04:21:42;;;;;;;11.85;2.05;;;1.80;99.90;;;0.70;100.00;98388.34;5042747;28;20131;-66
2021/12/12 04:24:10;;;;;;;13.60;2.80;;;1.80;99.90;;;0.67;100.00;98381.50;5032930;28;20132;-66
2021/12/12 04:26:42;;;;;;;8.93;3.20;;;1.80;99.90;;;0.65;100.00;98382.34;5036384;28;20626;-66
2021/12/12 04:29:33;;;;;;;6.50;2.17;;;1.80;99.90;;;0.68;100.00;98380.66;5034503;28;20074;-66
2021/12/12 04:32:24;;;;;;;14.35;1.98;;;1.80;99.90;;;0.71;100.00;98388.38;5031941;28;20083;-67
2021/12/12 04:35:07;;;;;;;11.23;2.47;;;1.90;99.90;;;0.70;100.00;98401.13;5028707;28;20079;-67
2021/12/12 04:37:36;;;;;;;12.82;2.35;;;1.90;99.90;;;0.65;100.00;98403.63;5037848;28;20152;-65
2021/12/12 04:40:06;;;;;;;13.07;2.03;;;1.90;99.90;;;0.71;100.00;98403.69;5028038;28;20076;-67
2021/12/12 04:42:38;;;;;;;10.82;2.22;;;2.00;99.90;;;0.80;100.00;98392.72;5028187;28;20458;-67
2021/12/12 04:45:16;;;;;;;11.18;2.53;;;1.90;99.90;;;0.80;100.00;98405.50;5032153;28;20072;-67
2021/12/12 04:51:21;;;;;;;11.77;1.50;;;2.00;99.90;;;0.86;100.00;98397.88;5024759;28;20056;-66
2021/12/12 04:54:32;;;;;;;11.88;1.60;;;1.90;99.90;;;0.91;100.00;98395.34;5019855;28;20090;-66
2021/12/12 04:57:45;;;;;;;10.60;2.10;;;1.90;99.90;;;0.82;100.00;98402.13;5026432;28;20076;-67
2021/12/12 05:00:27;;;;;;;10.18;1.70;;;1.90;99.90;;;0.82;100.00;98402.13;5037967;28;20113;-66
2021/12/12 05:03:13;;;;;;;15.65;1.90;;;2.00;99.90;;;0.94;100.00;98397.94;5026511;28;20137;-67
2021/12/12 05:05:56;;;;;;;10.10;1.55;;;2.00;99.90;;;0.88;100.00;98397.88;5013447;28;20520;-65
2021/12/12 05:08:42;;;;;;;7.70;1.63;;;2.00;99.90;;;0.84;100.00;98404.66;5032510;28;20594;-67
2021/12/12 05:11:51;;;;;;;11.30;2.03;;;2.10;99.90;;;0.97;100.00;98398.81;5040309;28;20124;-68
2021/12/12 05:14:23;;;;;;;7.28;1.67;;;2.10;99.90;;;0.93;100.00;98386.84;5032949;28;20124;-67
2021/12/12 05:16:59;;;;;;;9.40;1.70;;;2.10;99.90;;;0.96;100.00;98391.16;5024505;28;20198;-67
2021/12/12 05:19:29;;;;;;;8.10;1.40;;;2.10;99.90;;;0.99;100.00;98397.13;5030667;28;20510;-67
2021/12/12 05:22:06;;;;;;;12.05;1.75;;;2.10;99.90;;;0.96;100.00;98404.78;5026629;28;20145;-67
2021/12/12 05:24:36;;;;;;;12.02;2.40;;;2.10;99.90;;;0.88;100.00;98411.50;5025380;28;20163;-67
2021/12/12 05:27:14;;;;;;;9.82;2.05;;;2.10;99.90;;;0.97;100.00;98419.28;5033823;28;20076;-66
2021/12/12 05:29:55;;;;;;;6.43;1.27;;;2.10;99.90;;;1.01;100.00;98415.06;5034850;28;20069;-67
2021/12/12 05:32:24;;;;;;;8.13;1.50;;;2.10;99.90;;;1.03;100.00;98423.59;5026417;28;20132;-67
2021/12/12 05:34:54;;;;;;;10.07;1.73;;;2.10;99.90;;;1.02;100.00;98420.16;5025784;28;20069;-68
2021/12/12 05:37:22;;;;;;;9.82;1.73;;;2.10;99.90;;;1.03;100.00;98423.59;5031722;28;20554;-66
2021/12/12 05:39:50;;;;;;;8.55;1.73;;;2.10;99.90;;;0.98;100.00;98427.78;5031925;28;20128;-66
2021/12/12 05:42:19;;;;;;;8.43;1.67;;;2.10;99.90;;;1.03;100.00;98424.44;5036740;28;20564;-67
2021/12/12 05:44:47;;;;;;;10.27;1.73;;;2.20;99.90;;;0.99;100.00;98438.03;5020009;28;20473;-67
2021/12/12 05:47:15;;;;;;;8.57;1.98;;;2.20;99.90;;;1.00;100.00;98447.44;5029798;28;20085;-67
2021/12/12 05:49:43;;;;;;;11.43;1.48;;;2.10;99.90;;;1.11;100.00;98436.44;5038171;28;20041;-67
2021/12/12 05:52:16;;;;;;;8.77;1.50;;;2.20;99.90;;;1.06;100.00;98444.06;5033305;28;20136;-67
2021/12/12 05:54:46;;;;;;;12.35;1.30;;;2.20;99.90;;;1.07;100.00;98443.22;5051108;28;20126;-68
2021/12/12 05:57:19;;;;;;;9.55;1.60;;;2.10;99.90;;;1.06;100.00;98445.78;5039015;28;20096;-66
2021/12/12 05:59:47;;;;;;;11.52;1.60;;;2.20;99.90;;;0.97;100.00;98442.28;5032907;28;20120;-67
2021/12/12 06:02:15;;;;;;;8.05;1.75;;;2.20;99.90;;;1.04;100.00;98443.19;5025248;28;20569;-66
2021/12/12 06:04:42;;;;;;;6.53;1.38;;;2.10;99.90;;;1.03;100.00;98439.78;5020424;28;20143;-67
2021/12/12 06:07:19;;;;;;;5.25;1.50;;;2.20;99.90;;;1.01;100.00;98443.19;5022778;28;20073;-67
2021/12/12 06:09:49;;;;;;;6.38;1.38;;;2.20;99.90;;;0.95;100.00;98443.97;5033881;28;20061;-67
2021/12/12 06:12:17;;;;;;;6.85;1.83;;;2.10;99.90;;;0.97;100.00;98439.72;5031130;28;20133;-68
2021/12/12 06:14:47;;;;;;;13.85;2.10;;;2.20;99.90;;;0.97;100.00;98436.31;5035308;28;20128;-67
2021/12/12 06:17:17;;;;;;;9.98;1.15;;;2.20;99.90;;;1.02;100.00;98450.00;5037290;28;20121;-66
2021/12/12 06:19:46;;;;;;;8.20;1.63;;;2.10;99.90;;;1.06;100.00;98466.22;5036065;28;20128;-67
2021/12/12 06:22:14;;;;;;;10.60;1.42;;;2.20;99.90;;;0.98;100.00;98459.34;5027212;28;20169;-66
2021/12/12 06:24:41;;;;;;;7.07;1.45;;;2.20;99.90;;;0.94;100.00;98459.31;5027703;28;20045;-68
2021/12/12 06:27:16;;;;;;;12.55;1.92;;;2.20;99.90;;;1.04;100.00;98454.28;5017633;28;20136;-67
2021/12/12 06:29:49;;;;;;;8.80;1.58;;;2.20;99.90;;;1.02;100.00;98463.63;5017232;28;20450;-67
2021/12/12 06:32:16;;;;;;;10.63;1.55;;;2.20;99.90;;;1.11;100.00;98465.41;5028920;28;20486;-67
2021/12/12 06:34:47;;;;;;;16.55;1.60;;;2.20;99.90;;;1.04;100.00;98464.50;5027690;28;20561;-67
2021/12/12 06:37:16;;;;;;;9.48;2.40;;;2.10;99.90;;;0.99;100.00;98467.88;5025201;28;20537;-68
2021/12/12 06:39:45;;;;;;;11.68;1.60;;;2.20;99.90;;;0.98;100.00;98469.56;5030216;28;20191;-66
2021/12/12 06:42:14;;;;;;;10.85;1.90;;;2.30;99.90;;;1.03;100.00;98467.91;5045390;28;20545;-67
2021/12/12 06:44:43;;;;;;;8.38;1.58;;;2.20;99.90;;;0.98;100.00;98476.34;5035144;28;20076;-67
2021/12/12 06:47:14;;;;;;;8.75;1.30;;;2.20;99.90;;;1.03;100.00;98465.34;5019544;28;20417;-67
2021/12/12 06:49:43;;;;;;;9.30;2.13;;;2.20;99.90;;;0.97;100.00;98467.84;5044482;28;20460;-67
2021/12/12 06:52:12;;;;;;;10.57;1.73;;;2.20;99.90;;;1.08;100.00;98465.41;5025739;28;20076;-67
2021/12/12 06:54:40;;;;;;;9.90;1.90;;;2.20;99.90;;;1.00;100.00;98470.44;5033449;28;20235;-66
2021/12/12 06:57:13;;;;;;;13.73;1.55;;;2.20;99.90;;;1.01;100.00;98467.03;5031553;28;20069;-65
2021/12/12 06:59:42;;;;;;;6.82;1.30;;;2.20;99.90;;;1.07;100.00;98471.34;5012194;28;20124;-66
2021/12/12 07:02:10;;;;;;;7.60;2.05;;;2.20;99.90;;;0.97;100.00;98465.28;5040939;28;20110;-66
2021/12/12 07:04:40;;;;;;;7.30;1.30;;;2.30;99.90;;;1.09;100.00;98467.09;5024241;28;20050;-67
2021/12/12 07:07:11;;;;;;;9.68;1.63;;;2.30;99.90;;;1.02;100.00;98466.19;5055925;28;20148;-67
2021/12/12 07:09:42;;;;;;;16.38;2.53;;;2.30;99.90;;;1.07;100.00;98468.78;5044629;28;20049;-67
2021/12/12 07:12:13;;;;;;;12.35;1.60;;;2.20;99.90;;;1.03;100.00;98472.16;5036710;28;20050;-65
2021/12/12 07:14:41;;;;;;;12.13;1.77;;;2.30;99.90;;;1.08;100.00;98462.00;5041380;28;20418;-68
2021/12/12 07:17:10;;;;;;;7.85;2.00;;;2.20;99.90;;;1.16;100.00;98471.41;5038299;28;20549;-67
2021/12/12 07:19:39;;;;;;;7.60;1.42;;;2.20;99.90;;;1.08;100.00;98470.50;5030572;28;20131;-67
2021/12/12 07:22:07;;;;;;;5.32;1.40;;;2.20;99.90;;;1.00;100.00;98472.13;5025497;28;20053;-67
2021/12/12 07:24:35;;;;;;;11.00;2.10;;;2.30;99.90;;;1.08;100.00;98480.75;5025473;28;20128;-67
2021/12/12 07:27:03;;;;;;;10.95;2.00;;;2.20;99.90;;;1.06;100.00;98481.56;5032546;28;20479;-66
2021/12/12 07:29:30;;;;;;;11.25;2.13;;;2.20;99.90;;;1.02;100.00;98486.63;5020022;28;20208;-66
2021/12/12 07:31:58;;;;;;;6.47;1.25;;;2.30;99.90;;;1.12;100.00;98481.59;5024829;28;20227;-66
2021/12/12 07:34:25;;;;;;;12.18;2.25;;;2.20;99.90;;;1.10;100.00;98473.94;5034117;28;20507;-67
2021/12/12 07:36:59;;;;;;;10.43;2.05;;;2.20;99.90;;;1.11;100.00;98477.34;5027998;28;20128;-67
2021/12/12 07:39:29;;;;;;;10.10;2.00;;;2.30;99.90;;;1.04;100.00;98489.22;5039273;28;20457;-67
2021/12/12 07:42:00;;;;;;;7.13;1.83;;;2.40;99.90;;;1.11;100.00;98482.47;5015350;28;20131;-66
2021/12/12 07:44:35;;;;;;;15.80;2.53;;;2.30;99.90;;;1.08;100.00;98490.97;5041100;28;20080;-66
2021/12/12 07:47:05;;;;;;;16.63;2.67;;;2.30;99.90;;;1.18;100.00;98485.09;5017132;28;20160;-66
2021/12/12 07:49:38;;;;;;;13.60;2.33;;;2.30;99.90;;;1.15;100.00;98490.19;5014317;28;20049;-67
2021/12/12 07:52:11;;;;;;;8.90;1.88;;;2.30;99.90;;;1.14;100.00;98492.72;5028583;28;20557;-67
2021/12/12 07:54:39;;;;;;;8.95;1.70;;;2.30;99.90;;;1.08;100.00;98495.22;5040832;28;20532;-66
2021/12/12 07:57:07;;;;;;;9.90;2.10;;;2.30;99.90;;;1.04;100.00;98502.00;5018834;28;20087;-67
2021/12/12 07:59:38;;;;;;;12.73;2.20;;;2.30;99.90;;;1.06;100.00;98494.34;5030841;28;20045;-67
2021/12/12 08:02:09;;;;;;;12.52;2.60;;;2.40;99.90;;;1.20;100.00;98498.75;5019777;28;20067;-67
2021/12/12 08:04:39;;;;;;;8.50;2.90;;;2.40;99.90;;;1.18;100.00;98499.56;5028020;28;20053;-67
2021/12/12 08:07:20;;;;;;;13.52;2.15;;;2.50;99.90;;;1.25;100.00;98497.09;5028279;28;20079;-67
2021/12/12 08:09:49;;;;;;;9.68;2.53;;;2.50;99.90;;;1.40;100.00;98498.06;5050151;28;20132;-66
2021/12/12 08:12:26;;;;;;;10.07;1.77;;;2.50;99.90;;;1.41;100.00;98498.06;5020843;28;20435;-67
2021/12/12 08:14:54;;;;;;;8.68;1.95;;;2.50;99.90;;;1.37;100.00;98505.72;5017619;28;20073;-68
2021/12/12 08:17:23;;;;;;;11.88;1.80;;;2.60;99.90;;;1.52;100.00;98499.88;5004595;28;20057;-67
2021/12/12 08:19:56;;;;;;;7.85;2.20;;;2.50;99.90;;;1.44;100.00;98492.16;5014644;28;20484;-67
2021/12/12 08:22:25;;;;;;;8.70;1.42;;;2.50;99.90;;;1.33;100.00;98506.56;5033665;28;20457;-66
2021/12/12 08:24:55;;;;;;;9.75;1.85;;;2.60;99.90;;;1.35;100.00;98510.84;5028698;28;20505;-67
2021/12/12 08:27:22;;;;;;;6.47;1.45;;;2.60;99.90;;;1.52;100.00;98510.13;5026497;28;20180;-67
2021/12/12 08:29:50;;;;;;;12.70;2.60;;;2.70;99.90;;;1.37;100.00;98518.50;5021523;28;20070;-66
2021/12/12 08:32:17;;;;;;;13.35;2.45;;;2.70;99.90;;;1.45;100.00;98511.75;5034642;28;20136;-67
2021/12/12 08:35:08;;;;;;;11.45;3.13;;;2.70;99.90;;;1.56;100.00;98504.19;5034119;28;20064;-67
2021/12/12 08:37:36;;;;;;;65.38;20.58;;;2.80;99.90;;;1.54;100.00;98518.66;5039937;28;20068;-66
2021/12/12 08:40:05;;;;;;;57.22;19.13;;;2.80;99.90;;;1.56;100.00;98522.09;5039756;28;20048;-68
2021/12/12 08:42:33;;;;;;;52.20;19.70;;;2.80;99.90;;;1.60;100.00;98516.16;5031246;28;20072;-67
2021/12/12 08:45:04;;;;;;;20.52;6.65;;;2.90;99.90;;;1.53;100.00;98519.50;5048066;28;20100;-67
2021/12/12 08:47:35;;;;;;;19.80;8.35;;;2.90;99.90;;;1.43;100.00;98524.53;5027395;28;20061;-66
2021/12/12 08:50:10;;;;;;;16.65;5.50;;;3.00;99.90;;;1.57;100.00;98528.91;5022191;28;20048;-66
2021/12/12 08:52:40;;;;;;;16.48;6.32;;;3.00;99.90;;;1.61;100.00;98534.06;5035193;28;20136;-66
2021/12/12 08:55:18;;;;;;;11.93;5.15;;;3.00;99.90;;;1.56;100.00;98542.56;5030291;28;20053;-67
2021/12/12 08:58:05;;;;;;;11.90;4.03;;;3.00;99.90;;;1.72;100.00;98531.59;5032409;28;20122;-67
2021/12/12 09:00:41;;;;;;;12.85;3.72;;;3.10;99.90;;;1.72;100.00;98528.19;5016728;28;20140;-65
2021/12/12 09:03:10;;;;;;;12.40;2.88;;;3.00;99.90;;;1.64;100.00;98525.56;5025228;28;20060;-67
2021/12/12 09:05:41;;;;;;;10.15;3.72;;;3.10;99.90;;;1.73;100.00;98522.22;5022087;28;20096;-67
2021/12/12 09:08:42;;;;;;;8.90;2.38;;;3.10;99.90;;;1.66;100.00;98521.31;5021215;28;20421;-67
2021/12/12 09:11:30;;;;;;;9.40;2.50;;;3.20;99.90;;;1.68;100.00;98530.72;5015926;28;20647;-67
2021/12/12 09:14:10;;;;;;;6.90;1.65;;;3.10;99.90;;;1.80;100.00;98519.75;5032067;28;20049;-66
2021/12/12 09:16:55;;;;;;;16.33;3.00;;;3.00;99.90;;;1.82;100.00;98523.13;5022508;28;20143;-67
2021/12/12 09:19:55;;;;;;;21.70;4.15;;;3.10;99.90;;;1.79;100.00;98507.78;5046845;28;20050;-67
2021/12/12 09:22:33;;;;;;;14.05;2.25;;;3.10;99.90;;;1.89;100.00;98516.38;5024867;28;20853;-67
2021/12/12 09:25:39;;;;;;;9.00;1.85;;;3.10;99.90;;;2.02;100.00;98522.44;5024528;28;20085;-66
2021/12/12 09:28:25;;;;;;;9.23;2.38;;;3.20;99.90;;;2.09;100.00;98532.72;5019162;28;20137;-67
2021/12/12 09:30:58;;;;;;;10.63;2.08;;;3.20;99.90;;;1.90;100.00;98525.78;5038804;28;20125;-66
2021/12/12 09:33:36;;;;;;;7.47;2.15;;;3.30;99.90;;;2.17;100.00;98517.41;5028192;28;20074;-66
2021/12/12 09:36:11;;;;;;;4.28;1.20;;;3.40;99.90;;;2.19;100.00;98508.03;5026255;28;20077;-66
2021/12/12 09:38:56;;;;;;;14.63;2.17;;;3.40;99.90;;;2.30;100.00;98510.63;5027865;28;20132;-67
2021/12/12 09:41:45;;;;;;;9.00;1.83;;;3.50;99.90;;;2.44;100.00;98529.53;5017778;28;20064;-67
2021/12/12 09:44:30;;;;;;;9.38;2.33;;;3.60;99.90;;;2.12;100.00;98523.34;5030914;28;20486;-67
2021/12/12 09:53:37;;;;;;;9.90;3.05;;;3.80;99.90;;;2.25;100.00;98530.25;5040977;28;20131;-67
2021/12/12 09:56:34;;;;;;;15.32;2.38;;;3.70;99.90;;;2.37;100.00;98519.22;5025156;28;20137;-67
2021/12/12 09:59:50;;;;;;;16.08;3.45;;;3.70;99.90;;;2.27;100.00;98521.72;5039991;28;20049;-67
2021/12/12 10:02:41;;;;;;;24.42;8.20;;;3.70;99.90;;;2.28;100.00;98527.72;5027584;28;20267;-66
2021/12/12 10:05:43;;;;;;;28.88;10.88;;;3.70;99.90;;;2.42;100.00;98528.66;5023233;28;20143;-66
2021/12/12 10:09:06;;;;;;;20.45;3.90;;;3.70;99.90;;;2.46;100.00;98526.94;5021024;28;20135;-67
2021/12/12 10:11:43;;;;;;;10.65;2.20;;;3.70;99.90;;;2.28;100.00;98523.47;5006018;28;20054;-66
2021/12/12 10:14:43;;;;;;;19.80;3.72;;;3.70;99.90;;;2.25;100.00;98520.88;5025096;28;20076;-67
2021/12/12 10:17:36;;;;;;;18.92;4.85;;;3.60;99.90;;;2.29;100.00;98512.34;5023953;28;20168;-67
2021/12/12 10:20:33;;;;;;;14.52;3.47;;;3.60;99.90;;;2.38;100.00;98519.25;5026014;28;20136;-68
2021/12/12 10:23:13;;;;;;;13.65;2.55;;;3.60;99.90;;;2.34;100.00;98502.13;5027597;28;20490;-68
2021/12/12 10:25:52;;;;;;;10.88;2.75;;;3.60;99.90;;;2.38;100.00;98498.75;5026321;28;20431;-67
2021/12/12 10:28:31;;;;;;;15.38;3.05;;;3.80;99.90;;;2.44;100.00;98500.47;5019609;28;20537;-68
2021/12/12 10:31:37;;;;;;;23.05;4.70;;;3.80;99.90;;;2.57;100.00;98499.66;5020917;28;20052;-67
2021/12/12 10:34:17;;;;;;;17.15;3.08;;;3.80;99.90;;;2.41;100.00;98508.16;5023338;28;20152;-66
2021/12/12 10:37:24;;;;;;;13.68;2.85;;;3.80;99.90;;;2.53;100.00;98509.91;5024598;28;20064;-65
2021/12/12 10:39:59;;;;;;;9.65;2.45;;;3.80;99.90;;;2.44;100.00;98501.34;5017500;28;20083;-68
2021/12/12 10:42:45;;;;;;;16.17;4.57;;;3.90;99.90;;;2.53;100.00;98487.69;4997256;28;20103;-66
2021/12/12 10:45:33;;;;;;;17.63;6.47;;;3.80;99.90;;;2.42;100.00;98502.19;5036397;28;20090;-68
2021/12/12 10:48:10;;;;;;;13.88;2.72;;;3.80;99.90;;;2.55;100.00;98505.66;5030571;28;20472;-67
2021/12/12 10:51:00;;;;;;;10.45;2.42;;;3.80;99.90;;;2.59;100.00;98481.75;5024398;28;20121;-68
2021/12/12 10:53:41;;;;;;;15.52;2.70;;;3.80;99.90;;;2.53;100.00;98482.56;5025428;28;20059;-68
2021/12/12 10:56:50;;;;;;;10.40;2.83;;;3.80;99.90;;;2.31;100.00;98486.75;5025537;28;20132;-67
2021/12/12 10:59:29;;;;;;;16.77;4.97;;;3.90;99.90;;;2.50;100.00;98487.69;5008198;28;20149;-67
2021/12/12 11:02:06;;;;;;;21.73;3.25;;;3.80;99.90;;;2.50;100.00;98478.28;5021039;28;20116;-68
2021/12/12 11:04:56;;;;;;;13.20;3.30;;;3.80;99.90;;;2.57;100.00;98473.19;5042889;28;20049;-68
2021/12/12 11:07:38;;;;;;;17.15;3.80;;;3.90;99.90;;;2.61;100.00;98469.78;5016486;28;20540;-68
2021/12/12 11:10:17;;;;;;;15.82;3.67;;;3.80;99.90;;;2.55;100.00;98469.75;5021498;28;20081;-67
2021/12/12 11:12:55;;;;;;;17.55;3.60;;;3.80;99.90;;;2.58;100.00;98469.75;5025469;28;20060;-68
2021/12/12 11:15:35;;;;;;;10.73;3.33;;;3.80;99.90;;;2.59;100.00;98471.50;5023321;28;20058;-67
2021/12/12 11:18:14;;;;;;;19.48;4.00;;;3.90;99.90;;;2.60;100.00;98484.31;5017003;28;20078;-68
2021/12/12 11:20:52;;;;;;;15.15;3.58;;;3.90;99.90;;;2.71;100.00;98482.66;5028215;28;20377;-68
2021/12/12 11:23:32;;;;;;;9.80;3.17;;;3.90;99.90;;;2.66;100.00;98484.31;5012346;28;20128;-66